sensor_id;sensor_type;location;lat;lon;timestamp;temperature;humidity
13796;SHT30;40911;51.552;9.874;2023-07-16T00:02:04;20.56;92.79
13796;SHT30;40911;51.552;9.874;2023-07-16T00:04:26;20.85;91.64
13796;SHT30;40911;51.552;9.874;2023-07-16T00:06:48;20.79;91.66
13796;SHT30;40911;51.552;9.874;2023-07-16T00:09:14;20.62;92.17
13796;SHT30;40911;51.552;9.874;2023-07-16T00:11:37;20.72;91.83
13796;SHT30;40911;51.552;9.874;2023-07-16T00:13:59;20.86;91.06
13796;SHT30;40911;51.552;9.874;2023-07-16T00:16:22;20.73;91.48
13796;SHT30;40911;51.552;9.874;2023-07-16T00:18:44;20.85;91.09
13796;SHT30;40911;51.552;9.874;2023-07-16T00:21:06;20.86;90.95
13796;SHT30;40911;51.552;9.874;2023-07-16T00:23:28;20.83;90.71
13796;SHT30;40911;51.552;9.874;2023-07-16T00:25:51;20.68;91.14
13796;SHT30;40911;51.552;9.874;2023-07-16T00:28:13;20.87;90.64
13796;SHT30;40911;51.552;9.874;2023-07-16T00:30:35;20.77;90.71
13796;SHT30;40911;51.552;9.874;2023-07-16T00:32:57;20.69;90.96
13796;SHT30;40911;51.552;9.874;2023-07-16T00:35:19;20.69;90.58
13796;SHT30;40911;51.552;9.874;2023-07-16T00:37:41;20.73;90.61
13796;SHT30;40911;51.552;9.874;2023-07-16T00:40:04;20.75;90.29
13796;SHT30;40911;51.552;9.874;2023-07-16T00:42:27;20.86;90.31
13796;SHT30;40911;51.552;9.874;2023-07-16T00:44:49;20.87;89.67
13796;SHT30;40911;51.552;9.874;2023-07-16T00:47:11;20.82;89.78
13796;SHT30;40911;51.552;9.874;2023-07-16T00:49:33;20.72;89.98
13796;SHT30;40911;51.552;9.874;2023-07-16T00:51:56;20.77;89.77
13796;SHT30;40911;51.552;9.874;2023-07-16T00:54:19;20.76;89.90
13796;SHT30;40911;51.552;9.874;2023-07-16T00:56:42;20.73;89.84
13796;SHT30;40911;51.552;9.874;2023-07-16T00:59:06;20.68;90.10
13796;SHT30;40911;51.552;9.874;2023-07-16T01:01:29;20.58;89.86
13796;SHT30;40911;51.552;9.874;2023-07-16T01:03:51;20.52;90.67
13796;SHT30;40911;51.552;9.874;2023-07-16T01:06:18;20.48;90.57
13796;SHT30;40911;51.552;9.874;2023-07-16T01:08:46;20.52;89.81
13796;SHT30;40911;51.552;9.874;2023-07-16T01:11:09;20.52;89.60
13796;SHT30;40911;51.552;9.874;2023-07-16T01:13:31;20.48;89.63
13796;SHT30;40911;51.552;9.874;2023-07-16T01:15:55;20.51;89.14
13796;SHT30;40911;51.552;9.874;2023-07-16T01:18:18;20.59;88.97
13796;SHT30;40911;51.552;9.874;2023-07-16T01:20:40;20.53;89.50
13796;SHT30;40911;51.552;9.874;2023-07-16T01:26:05;20.60;89.34
13796;SHT30;40911;51.552;9.874;2023-07-16T01:28:42;20.66;89.23
13796;SHT30;40911;51.552;9.874;2023-07-16T01:31:08;20.56;88.97
13796;SHT30;40911;51.552;9.874;2023-07-16T01:33:32;20.58;88.70
13796;SHT30;40911;51.552;9.874;2023-07-16T01:35:56;20.59;88.75
13796;SHT30;40911;51.552;9.874;2023-07-16T01:38:18;20.53;88.96
13796;SHT30;40911;51.552;9.874;2023-07-16T01:40:41;20.59;88.77
13796;SHT30;40911;51.552;9.874;2023-07-16T01:43:03;20.56;89.15
13796;SHT30;40911;51.552;9.874;2023-07-16T01:45:25;20.53;89.22
13796;SHT30;40911;51.552;9.874;2023-07-16T01:47:59;20.60;88.98
13796;SHT30;40911;51.552;9.874;2023-07-16T01:50:30;20.58;89.27
13796;SHT30;40911;51.552;9.874;2023-07-16T01:52:51;20.58;89.63
13796;SHT30;40911;51.552;9.874;2023-07-16T01:55:12;20.48;90.20
13796;SHT30;40911;51.552;9.874;2023-07-16T01:57:34;20.42;90.64
13796;SHT30;40911;51.552;9.874;2023-07-16T01:59:56;20.47;89.81
13796;SHT30;40911;51.552;9.874;2023-07-16T02:02:18;20.38;90.30
13796;SHT30;40911;51.552;9.874;2023-07-16T02:04:41;20.39;89.91
13796;SHT30;40911;51.552;9.874;2023-07-16T02:07:03;20.37;90.19
13796;SHT30;40911;51.552;9.874;2023-07-16T02:09:26;20.35;89.99
13796;SHT30;40911;51.552;9.874;2023-07-16T02:11:48;20.34;89.55
13796;SHT30;40911;51.552;9.874;2023-07-16T02:14:10;20.35;89.80
13796;SHT30;40911;51.552;9.874;2023-07-16T02:16:33;20.14;90.44
13796;SHT30;40911;51.552;9.874;2023-07-16T02:18:55;20.04;91.18
13796;SHT30;40911;51.552;9.874;2023-07-16T02:21:18;19.89;92.09
13796;SHT30;40911;51.552;9.874;2023-07-16T02:23:40;19.72;92.37
13796;SHT30;40911;51.552;9.874;2023-07-16T02:26:02;19.74;92.51
13796;SHT30;40911;51.552;9.874;2023-07-16T02:28:24;19.83;92.49
13796;SHT30;40911;51.552;9.874;2023-07-16T02:30:46;19.66;92.66
13796;SHT30;40911;51.552;9.874;2023-07-16T02:33:08;19.63;92.77
13796;SHT30;40911;51.552;9.874;2023-07-16T02:35:29;19.62;93.04
13796;SHT30;40911;51.552;9.874;2023-07-16T02:37:53;19.63;92.78
13796;SHT30;40911;51.552;9.874;2023-07-16T02:40:15;19.67;92.84
13796;SHT30;40911;51.552;9.874;2023-07-16T02:42:37;19.83;91.89
13796;SHT30;40911;51.552;9.874;2023-07-16T02:44:59;19.61;92.64
13796;SHT30;40911;51.552;9.874;2023-07-16T02:47:20;19.74;92.48
13796;SHT30;40911;51.552;9.874;2023-07-16T02:49:42;19.66;92.19
13796;SHT30;40911;51.552;9.874;2023-07-16T02:52:05;19.62;92.43
13796;SHT30;40911;51.552;9.874;2023-07-16T02:54:28;19.55;92.88
13796;SHT30;40911;51.552;9.874;2023-07-16T02:56:50;19.49;92.74
13796;SHT30;40911;51.552;9.874;2023-07-16T02:59:12;19.55;92.69
13796;SHT30;40911;51.552;9.874;2023-07-16T03:01:33;19.52;92.68
13796;SHT30;40911;51.552;9.874;2023-07-16T03:03:55;19.41;93.02
13796;SHT30;40911;51.552;9.874;2023-07-16T03:06:17;19.39;93.07
13796;SHT30;40911;51.552;9.874;2023-07-16T03:08:39;19.32;93.36
13796;SHT30;40911;51.552;9.874;2023-07-16T03:11:02;19.28;93.29
13796;SHT30;40911;51.552;9.874;2023-07-16T03:13:24;19.24;93.13
13796;SHT30;40911;51.552;9.874;2023-07-16T03:15:46;19.25;93.04
13796;SHT30;40911;51.552;9.874;2023-07-16T03:18:08;19.25;92.98
13796;SHT30;40911;51.552;9.874;2023-07-16T03:20:31;19.12;93.34
13796;SHT30;40911;51.552;9.874;2023-07-16T03:22:53;19.21;92.88
13796;SHT30;40911;51.552;9.874;2023-07-16T03:25:21;19.11;93.04
13796;SHT30;40911;51.552;9.874;2023-07-16T03:27:44;19.10;93.07
13796;SHT30;40911;51.552;9.874;2023-07-16T03:30:07;19.15;92.38
13796;SHT30;40911;51.552;9.874;2023-07-16T23:52:36;17.28;72.57
13796;SHT30;40911;51.552;9.874;2023-07-16T23:54:57;16.91;73.44
13796;SHT30;40911;51.552;9.874;2023-07-16T23:57:19;16.73;73.89
13796;SHT30;40911;51.552;9.874;2023-07-16T23:59:40;16.56;75.06
